Time;durP1;ratioP1;P1;durP2;ratioP2;P2;SDS_P1;SDS_P2;PMS_P1;PMS_P2;Temp;Humidity;BMP_temperature;BMP_pressure;BME280_temperature;BME280_humidity;BME280_pressure;Samples;Min_cycle;Max_cycle;Signal;HPM_P1;HPM_P2
2023/04/06 00:00:12;;;;;;;2.90;2.10;;;;;;;;;;5033064;28;20424;-76
2023/04/06 00:02:38;;;;;;;3.83;1.50;;;;;;;;;;5032907;28;20410;-76
2023/04/06 00:05:04;;;;;;;4.07;2.27;;;;;;;;;;5032973;28;20791;-76
2023/04/06 00:07:33;;;;;;;3.63;2.53;;;;;;;;;;5032831;28;20441;-77
2023/04/06 00:09:58;;;;;;;6.10;2.90;;;;;;;;;;5032501;28;20423;-77
2023/04/06 00:12:24;;;;;;;5.67;2.47;;;;;;;;;;5032887;28;20511;-76
2023/04/06 00:14:50;;;;;;;6.00;2.33;;;;;;;;;;5032859;28;20407;-77
2023/04/06 00:17:16;;;;;;;4.20;2.13;;;;;;;;;;5035626;28;20405;-77
2023/04/06 00:19:42;;;;;;;3.10;2.50;;;;;;;;;;5036943;28;20924;-77
2023/04/06 00:22:08;;;;;;;4.83;2.27;;;;;;;;;;5036786;28;20419;-77
2023/04/06 00:24:34;;;;;;;2.30;1.50;;;;;;;;;;5036431;28;20424;-77
2023/04/06 00:27:01;;;;;;;3.20;1.70;;;;;;;;;;5036819;28;20451;-77
2023/04/06 00:29:33;;;;;;;3.27;2.20;;;;;;;;;;5036857;28;20514;-77
2023/04/06 00:31:59;;;;;;;5.90;2.77;;;;;;;;;;5036700;28;20408;-77
2023/04/06 00:34:25;;;;;;;5.00;2.60;;;;;;;;;;5036727;28;20417;-77
2023/04/06 00:36:50;;;;;;;4.23;2.30;;;;;;;;;;5036675;28;20818;-77
2023/04/06 00:39:16;;;;;;;4.73;2.77;;;;;;;;;;5036241;28;20494;-77
2023/04/06 00:41:46;;;;;;;5.37;2.80;;;;;;;;;;5036597;28;20413;-77
2023/04/06 00:44:12;;;;;;;3.33;2.40;;;;;;;;;;5036464;28;20420;-77
2023/04/06 00:46:38;;;;;;;3.27;2.60;;;;;;;;;;5036428;28;20414;-77
2023/04/06 00:49:04;;;;;;;3.60;2.40;;;;;;;;;;5036458;28;20420;-77
2023/04/06 00:51:30;;;;;;;4.03;2.37;;;;;;;;;;5036404;28;20408;-77
2023/04/06 00:53:56;;;;;;;4.30;2.63;;;;;;;;;;5036021;28;20417;-77
2023/04/06 00:56:23;;;;;;;6.30;3.80;;;;;;;;;;5036184;28;20403;-77
2023/04/06 00:58:49;;;;;;;4.13;3.03;;;;;;;;;;5035831;28;20519;-77
2023/04/06 01:01:15;;;;;;;7.03;2.67;;;;;;;;;;5036226;28;20440;-77
2023/04/06 01:03:42;;;;;;;5.97;3.50;;;;;;;;;;5036166;28;20985;-77
2023/04/06 01:06:08;;;;;;;3.43;2.77;;;;;;;;;;5036108;28;20762;-77
2023/04/06 01:08:34;;;;;;;3.40;2.10;;;;;;;;;;5035737;28;20425;-77
2023/04/06 01:11:00;;;;;;;7.93;2.80;;;;;;;;;;5035951;28;20413;-76
2023/04/06 01:13:27;;;;;;;6.57;3.40;;;;;;;;;;5035926;28;20405;-77
2023/04/06 01:15:53;;;;;;;4.30;3.07;;;;;;;;;;5035906;28;20492;-76
2023/04/06 01:18:18;;;;;;;3.20;2.87;;;;;;;;;;5035795;28;20563;-77
2023/04/06 01:20:44;;;;;;;5.27;3.30;;;;;;;;;;5035884;28;20419;-77
2023/04/06 01:23:10;;;;;;;4.67;2.70;;;;;;;;;;5035819;28;20505;-76
2023/04/06 01:25:36;;;;;;;6.07;3.10;;;;;;;;;;5035460;28;20500;-76
2023/04/06 01:28:02;;;;;;;4.83;2.90;;;;;;;;;;5035577;28;20769;-76
2023/04/06 01:30:28;;;;;;;5.03;3.10;;;;;;;;;;5035654;28;20415;-76
2023/04/06 01:32:54;;;;;;;3.80;2.83;;;;;;;;;;5035566;28;20835;-76
2023/04/06 01:35:20;;;;;;;3.87;3.10;;;;;;;;;;5035592;28;20512;-77
2023/04/06 01:37:46;;;;;;;5.27;2.77;;;;;;;;;;5035480;28;20465;-77
2023/04/06 01:40:13;;;;;;;3.80;2.77;;;;;;;;;;5035196;28;20421;-76
2023/04/06 01:42:39;;;;;;;7.10;3.10;;;;;;;;;;5035393;28;20408;-77
2023/04/06 01:45:05;;;;;;;3.17;2.80;;;;;;;;;;5035373;28;20783;-76
2023/04/06 01:47:31;;;;;;;7.97;3.20;;;;;;;;;;5035376;28;20405;-77
2023/04/06 01:49:57;;;;;;;4.60;2.40;;;;;;;;;;5035374;28;20417;-77
2023/04/06 01:52:23;;;;;;;5.17;3.00;;;;;;;;;;5017600;28;20421;-76
2023/04/06 01:54:49;;;;;;;4.63;3.00;;;;;;;;;;5017119;28;20440;-76
2023/04/06 01:57:15;;;;;;;4.90;3.20;;;;;;;;;;5035021;28;20740;-76
2023/04/06 01:59:41;;;;;;;4.33;3.03;;;;;;;;;;5035133;28;20528;-76
2023/04/06 02:02:07;;;;;;;4.70;3.33;;;;;;;;;;5017378;28;20456;-76
2023/04/06 02:04:33;;;;;;;4.03;2.70;;;;;;;;;;5035137;28;20407;-76
2023/04/06 02:06:59;;;;;;;3.70;2.60;;;;;;;;;;5034987;28;20409;-76
2023/04/06 02:09:25;;;;;;;4.13;2.70;;;;;;;;;;5034675;28;20411;-76
2023/04/06 02:11:51;;;;;;;3.60;2.23;;;;;;;;;;5034867;28;20898;-76
2023/04/06 02:14:17;;;;;;;4.10;3.03;;;;;;;;;;5034819;28;20420;-76
2023/04/06 02:16:43;;;;;;;4.93;3.10;;;;;;;;;;5034870;28;20414;-75
2023/04/06 02:19:09;;;;;;;5.43;2.60;;;;;;;;;;5017017;28;21007;-76
2023/04/06 02:21:34;;;;;;;3.93;1.90;;;;;;;;;;5034756;28;20403;-76
2023/04/06 02:24:00;;;;;;;3.73;2.47;;;;;;;;;;5034448;28;20410;-76
2023/04/06 02:26:26;;;;;;;4.83;3.07;;;;;;;;;;5034498;28;20904;-76
2023/04/06 02:28:52;;;;;;;4.63;3.00;;;;;;;;;;5016723;28;20471;-76
2023/04/06 02:31:18;;;;;;;3.67;2.77;;;;;;;;;;5034529;28;20489;-76
2023/04/06 02:33:47;;;;;;;7.03;2.83;;;;;;;;;;5034470;28;20905;-75
2023/04/06 02:36:13;;;;;;;5.20;3.43;;;;;;;;;;5016671;28;20496;-75
2023/04/06 02:38:39;;;;;;;5.10;3.10;;;;;;;;;;5033461;28;20568;-77
2023/04/06 02:41:05;;;;;;;3.17;2.57;;;;;;;;;;5034372;28;20443;-75
2023/04/06 02:43:31;;;;;;;5.77;3.40;;;;;;;;;;5016615;28;20941;-76
2023/04/06 02:45:57;;;;;;;3.53;3.17;;;;;;;;;;5034171;28;20776;-76
2023/04/06 02:48:26;;;;;;;4.00;3.20;;;;;;;;;;5016518;28;20418;-76
2023/04/06 02:50:51;;;;;;;4.93;3.10;;;;;;;;;;5016408;28;20441;-76
2023/04/06 02:53:17;;;;;;;6.70;3.37;;;;;;;;;;5015959;28;20469;-76
2023/04/06 02:55:43;;;;;;;3.77;3.40;;;;;;;;;;5034116;28;20434;-75
2023/04/06 02:58:09;;;;;;;5.27;3.23;;;;;;;;;;5033737;28;20501;-75
2023/04/06 03:00:35;;;;;;;7.00;3.80;;;;;;;;;;5016270;28;20798;-76
2023/04/06 03:03:01;;;;;;;5.60;3.67;;;;;;;;;;5033955;28;20401;-76
2023/04/06 03:05:27;;;;;;;6.17;3.77;;;;;;;;;;5016092;28;20425;-78
2023/04/06 03:07:53;;;;;;;4.80;3.80;;;;;;;;;;5033716;28;20416;-77
2023/04/06 03:10:19;;;;;;;5.43;3.43;;;;;;;;;;5033466;28;20412;-76
2023/04/06 03:12:45;;;;;;;6.27;4.27;;;;;;;;;;5033811;28;20410;-77
2023/04/06 03:15:11;;;;;;;7.37;4.00;;;;;;;;;;5033742;28;20420;-77
2023/04/06 03:17:37;;;;;;;7.70;3.70;;;;;;;;;;5033568;28;20407;-76
2023/04/06 03:20:03;;;;;;;6.40;3.77;;;;;;;;;;5033640;28;20423;-76
2023/04/06 03:22:29;;;;;;;5.00;4.50;;;;;;;;;;5033588;28;20737;-76
2023/04/06 03:24:55;;;;;;;6.17;4.50;;;;;;;;;;5015506;28;20464;-75
2023/04/06 03:27:21;;;;;;;4.50;3.63;;;;;;;;;;5033489;28;20406;-76
2023/04/06 03:29:50;;;;;;;8.27;4.13;;;;;;;;;;5033458;28;20810;-76
2023/04/06 03:32:16;;;;;;;11.97;4.83;;;;;;;;;;5015663;28;20433;-76
2023/04/06 03:34:42;;;;;;;6.30;3.50;;;;;;;;;;5015700;28;20829;-76
2023/04/06 03:37:07;;;;;;;7.30;3.77;;;;;;;;;;5033262;28;20430;-76
2023/04/06 03:39:33;;;;;;;5.37;3.20;;;;;;;;;;5032852;28;20473;-76
2023/04/06 03:41:59;;;;;;;4.33;3.73;;;;;;;;;;5015557;28;20423;-76
2023/04/06 03:44:25;;;;;;;5.30;4.33;;;;;;;;;;5015602;28;20425;-76
2023/04/06 03:46:51;;;;;;;7.10;4.50;;;;;;;;;;5033273;28;20800;-76
2023/04/06 03:49:20;;;;;;;5.50;3.80;;;;;;;;;;5015474;28;20432;-77
2023/04/06 03:51:45;;;;;;;5.47;3.80;;;;;;;;;;5032393;28;20408;-78
2023/04/06 03:54:11;;;;;;;4.50;3.53;;;;;;;;;;5032846;28;20929;-75
2023/04/06 03:56:37;;;;;;;5.07;4.23;;;;;;;;;;5015367;28;20416;-76
2023/04/06 03:59:04;;;;;;;5.10;3.57;;;;;;;;;;5032875;28;20478;-76
2023/04/06 04:01:30;;;;;;;4.80;4.00;;;;;;;;;;5015396;28;20414;-75
2023/04/06 04:03:56;;;;;;;5.57;4.13;;;;;;;;;;5032960;28;20509;-76
2023/04/06 04:06:22;;;;;;;8.60;3.27;;;;;;;;;;5015306;28;20417;-76
2023/04/06 04:08:48;;;;;;;5.67;5.00;;;;;;;;;;5032550;28;20417;-75
2023/04/06 04:11:15;;;;;;;9.57;4.03;;;;;;;;;;5015126;28;20415;-75
2023/04/06 04:13:41;;;;;;;5.50;4.77;;;;;;;;;;5015257;28;20424;-76
2023/04/06 04:16:07;;;;;;;6.07;4.57;;;;;;;;;;5015124;28;20468;-75
2023/04/06 04:18:36;;;;;;;6.07;4.03;;;;;;;;;;5032653;28;20846;-76
2023/04/06 04:21:02;;;;;;;6.83;4.17;;;;;;;;;;5032792;28;20492;-76
2023/04/06 04:23:31;;;;;;;5.03;3.70;;;;;;;;;;5032248;28;20859;-76
2023/04/06 04:25:57;;;;;;;7.77;3.50;;;;;;;;;;5032792;28;20411;-76
2023/04/06 04:28:23;;;;;;;9.27;4.43;;;;;;;;;;5032562;28;20420;-75
2023/04/06 04:30:49;;;;;;;8.00;5.10;;;;;;;;;;5032637;28;20409;-76
2023/04/06 04:33:15;;;;;;;5.63;4.10;;;;;;;;;;5014983;28;20965;-75
2023/04/06 04:35:41;;;;;;;5.57;4.80;;;;;;;;;;5039565;28;20440;-76
2023/04/06 04:38:07;;;;;;;6.30;4.37;;;;;;;;;;5034151;28;20984;-76
2023/04/06 04:40:32;;;;;;;9.50;4.73;;;;;;;;;;5034394;28;20415;-76
2023/04/06 04:42:58;;;;;;;5.33;4.00;;;;;;;;;;5051574;28;20450;-76
2023/04/06 04:45:25;;;;;;;5.73;5.07;;;;;;;;;;5033354;28;20420;-76
2023/04/06 04:47:50;;;;;;;6.60;4.50;;;;;;;;;;5034534;28;20425;-75
2023/04/06 04:50:16;;;;;;;7.97;4.73;;;;;;;;;;5034460;28;20994;-75
2023/04/06 04:52:42;;;;;;;6.77;4.47;;;;;;;;;;5034149;28;20413;-75
2023/04/06 04:55:08;;;;;;;6.10;4.40;;;;;;;;;;5052222;28;20418;-76
2023/04/06 04:57:37;;;;;;;8.10;5.37;;;;;;;;;;5052170;28;20452;-75
2023/04/06 05:00:03;;;;;;;6.80;5.40;;;;;;;;;;5051719;28;20442;-76
2023/04/06 05:02:29;;;;;;;7.83;5.60;;;;;;;;;;5035811;28;20205;-76
2023/04/06 05:04:55;;;;;;;7.30;5.53;;;;;;;;;;5055941;28;20936;-76
2023/04/06 05:07:21;;;;;;;5.97;4.97;;;;;;;;;;5056044;28;20505;-76
2023/04/06 05:09:47;;;;;;;9.05;5.85;;;;;;;;;;5036906;28;20420;-75
2023/04/06 05:12:13;;;;;;;5.97;4.97;;;;;;;;;;5055955;28;20211;-76
2023/04/06 05:14:39;;;;;;;6.10;5.27;;;;;;;;;;5055848;28;20407;-75
2023/04/06 05:17:05;;;;;;;6.73;4.63;;;;;;;;;;5055924;28;21000;-76
2023/04/06 05:19:31;;;;;;;9.53;5.57;;;;;;;;;;5037846;28;20477;-76
2023/04/06 05:21:57;;;;;;;5.37;4.83;;;;;;;;;;5055821;28;20501;-75
2023/04/06 05:24:23;;;;;;;10.77;5.40;;;;;;;;;;5055418;28;20416;-76
2023/04/06 05:26:49;;;;;;;6.50;5.43;;;;;;;;;;5055127;28;20408;-76
2023/04/06 05:29:20;;;;;;;17.00;12.30;;;;;;;;;;5055329;28;20814;-75
2023/04/06 05:31:46;;;;;;;8.80;6.67;;;;;;;;;;5055554;28;20440;-76
2023/04/06 05:34:12;;;;;;;9.53;5.87;;;;;;;;;;5055563;28;20419;-76
2023/04/06 05:36:38;;;;;;;7.03;5.77;;;;;;;;;;5055485;28;20435;-75
2023/04/06 05:39:04;;;;;;;8.90;6.13;;;;;;;;;;5037126;28;20468;-75
2023/04/06 05:41:30;;;;;;;9.33;6.10;;;;;;;;;;5037602;28;20412;-75
2023/04/06 05:43:56;;;;;;;10.03;5.67;;;;;;;;;;5055260;28;20500;-76
2023/04/06 05:46:22;;;;;;;7.73;5.20;;;;;;;;;;5055316;28;20944;-76
2023/04/06 05:48:48;;;;;;;9.20;5.23;;;;;;;;;;5055084;28;20417;-76
2023/04/06 05:51:14;;;;;;;6.60;4.80;;;;;;;;;;5054989;28;20412;-76
2023/04/06 05:53:40;;;;;;;6.30;4.70;;;;;;;;;;5054439;28;20418;-76
2023/04/06 05:56:06;;;;;;;5.83;4.80;;;;;;;;;;5054895;28;20404;-76
2023/04/06 05:58:32;;;;;;;6.40;5.03;;;;;;;;;;5054853;28;20483;-76
2023/04/06 06:00:58;;;;;;;8.03;5.10;;;;;;;;;;5055072;28;20401;-76
2023/04/06 06:03:24;;;;;;;7.70;4.60;;;;;;;;;;5054897;28;20435;-76
2023/04/06 06:05:50;;;;;;;9.70;4.87;;;;;;;;;;5036857;28;20455;-75
2023/04/06 06:08:16;;;;;;;10.50;5.50;;;;;;;;;;5054502;28;20406;-76
2023/04/06 06:10:42;;;;;;;6.93;4.73;;;;;;;;;;5054735;28;20944;-76
2023/04/06 06:13:08;;;;;;;6.33;5.73;;;;;;;;;;5054529;28;20407;-76
2023/04/06 06:15:34;;;;;;;5.53;4.37;;;;;;;;;;5054161;28;20400;-76
2023/04/06 06:18:02;;;;;;;5.40;4.90;;;;;;;;;;5027653;28;20449;-87
2023/04/06 06:20:28;;;;;;;6.10;4.03;;;;;;;;;;5017269;28;20425;-79
2023/04/06 06:22:54;;;;;;;12.03;4.57;;;;;;;;;;5017609;28;20417;-89
2023/04/06 06:25:21;;;;;;;5.77;5.17;;;;;;;;;;5017662;28;20427;-89
2023/04/06 06:27:47;;;;;;;7.47;5.07;;;;;;;;;;5034617;28;20572;-87
2023/04/06 06:30:13;;;;;;;6.80;5.57;;;;;;;;;;5016289;28;20431;-89
2023/04/06 06:32:39;;;;;;;5.77;3.67;;;;;;;;;;5035489;28;20419;-93
2023/04/06 06:35:05;;;;;;;6.27;3.97;;;;;;;;;;5034039;28;20493;-79
2023/04/06 06:37:31;;;;;;;7.10;5.30;;;;;;;;;;5033749;28;20888;-89
2023/04/06 06:39:57;;;;;;;7.87;4.90;;;;;;;;;;5029480;28;20434;-91
2023/04/06 06:42:23;;;;;;;6.27;5.10;;;;;;;;;;5036185;28;20413;-93
2023/04/06 06:44:49;;;;;;;9.10;5.93;;;;;;;;;;5035519;28;20914;-92
2023/04/06 06:47:14;;;;;;;14.57;8.13;;;;;;;;;;5035299;28;20195;-92
2023/04/06 06:49:40;;;;;;;10.20;6.47;;;;;;;;;;5034921;28;20414;-91
2023/04/06 06:52:06;;;;;;;9.73;5.33;;;;;;;;;;5017423;28;20411;-93
2023/04/06 06:54:32;;;;;;;8.93;4.80;;;;;;;;;;5035150;28;20821;-94
2023/04/06 06:57:02;;;;;;;7.80;5.50;;;;;;;;;;5016193;28;20489;-84
2023/04/06 06:59:28;;;;;;;6.60;4.97;;;;;;;;;;5032775;28;20218;-85
2023/04/06 07:01:55;;;;;;;4.67;3.87;;;;;;;;;;5015276;28;20976;-87
2023/04/06 07:04:21;;;;;;;5.87;4.60;;;;;;;;;;5034447;28;21007;-92
2023/04/06 07:06:47;;;;;;;9.03;6.90;;;;;;;;;;5016344;28;20428;-89
2023/04/06 07:09:13;;;;;;;5.10;4.40;;;;;;;;;;5011783;28;20459;-77
2023/04/06 07:11:38;;;;;;;5.13;3.80;;;;;;;;;;5004784;28;20264;-87
2023/04/06 07:14:05;;;;;;;8.70;6.57;;;;;;;;;;5013828;28;20235;-88
2023/04/06 07:16:31;;;;;;;5.93;5.30;;;;;;;;;;5013928;28;20302;-85
2023/04/06 07:18:56;;;;;;;9.20;6.30;;;;;;;;;;5017823;28;20504;-94
2023/04/06 07:21:22;;;;;;;7.00;4.20;;;;;;;;;;5015390;28;20483;-88
2023/04/06 07:23:50;;;;;;;12.53;4.63;;;;;;;;;;5014159;28;20779;-88
2023/04/06 07:26:16;;;;;;;4.10;3.70;;;;;;;;;;5030077;28;20418;-91
2023/04/06 07:28:42;;;;;;;5.40;4.60;;;;;;;;;;5034169;28;20412;-81
2023/04/06 07:31:08;;;;;;;4.37;3.43;;;;;;;;;;5034142;28;20446;-90
2023/04/06 07:33:34;;;;;;;5.33;3.90;;;;;;;;;;5033893;28;20418;-87
2023/04/06 07:36:00;;;;;;;3.83;3.00;;;;;;;;;;5033929;28;20447;-90
2023/04/06 07:38:26;;;;;;;4.77;2.87;;;;;;;;;;5033373;28;20290;-81
2023/04/06 07:40:52;;;;;;;7.77;4.07;;;;;;;;;;5032863;28;20417;-75
2023/04/06 07:43:18;;;;;;;3.50;3.20;;;;;;;;;;5033254;28;20413;-74
2023/04/06 07:45:44;;;;;;;4.30;3.70;;;;;;;;;;5033117;28;20522;-75
2023/04/06 07:48:10;;;;;;;4.53;3.50;;;;;;;;;;5033089;28;20412;-74
2023/04/06 07:50:35;;;;;;;2.80;2.27;;;;;;;;;;5032569;28;20415;-75
2023/04/06 07:53:02;;;;;;;3.73;2.53;;;;;;;;;;5032765;28;20443;-75
2023/04/06 07:55:28;;;;;;;5.10;3.50;;;;;;;;;;5033213;28;20171;-77
2023/04/06 07:57:54;;;;;;;11.80;3.97;;;;;;;;;;5032802;28;20566;-77
2023/04/06 08:00:20;;;;;;;5.40;3.53;;;;;;;;;;5033055;28;20646;-77
2023/04/06 08:02:46;;;;;;;4.13;3.20;;;;;;;;;;5032960;28;20203;-75
2023/04/06 08:05:12;;;;;;;2.60;2.10;;;;;;;;;;5033005;28;20518;-75
2023/04/06 08:07:38;;;;;;;3.83;3.20;;;;;;;;;;5032630;28;20462;-75
2023/04/06 08:10:04;;;;;;;4.30;3.50;;;;;;;;;;5032992;28;20825;-75
2023/04/06 08:12:30;;;;;;;5.80;3.30;;;;;;;;;;5032770;28;20451;-75
2023/04/06 08:14:59;;;;;;;4.03;2.77;;;;;;;;;;5040175;28;20919;-81
2023/04/06 08:17:27;;;;;;;4.60;2.70;;;;;;;;;;5029455;28;20456;-75
2023/04/06 08:19:53;;;;;;;6.73;3.53;;;;;;;;;;5031786;28;20513;-75
2023/04/06 08:22:19;;;;;;;5.23;2.63;;;;;;;;;;5032331;28;20439;-75
2023/04/06 08:24:45;;;;;;;5.03;3.30;;;;;;;;;;5031732;28;20272;-75
2023/04/06 08:27:10;;;;;;;6.20;3.63;;;;;;;;;;5031489;28;20249;-75
2023/04/06 08:29:36;;;;;;;6.00;3.70;;;;;;;;;;5032188;28;20262;-75
2023/04/06 08:32:04;;;;;;;3.83;3.43;;;;;;;;;;5032741;28;20422;-75
2023/04/06 08:34:30;;;;;;;4.63;3.83;;;;;;;;;;5032665;28;20417;-75
2023/04/06 08:36:56;;;;;;;4.33;3.13;;;;;;;;;;5033226;28;20415;-75
2023/04/06 08:39:25;;;;;;;4.60;3.90;;;;;;;;;;5035919;28;20214;-75
2023/04/06 08:41:52;;;;;;;4.23;3.10;;;;;;;;;;5036623;28;20170;-75
2023/04/06 08:44:18;;;;;;;5.13;2.93;;;;;;;;;;5036599;28;20431;-75
2023/04/06 08:46:44;;;;;;;4.93;3.60;;;;;;;;;;5036546;28;20790;-75
2023/04/06 08:49:10;;;;;;;4.33;3.40;;;;;;;;;;5036584;28;20428;-75
2023/04/06 08:51:38;;;;;;;4.10;3.47;;;;;;;;;;5036514;28;20449;-77
2023/04/06 08:54:04;;;;;;;4.73;3.87;;;;;;;;;;5036090;28;20485;-74
2023/04/06 08:56:30;;;;;;;4.03;3.53;;;;;;;;;;5036416;28;20423;-74
2023/04/06 08:58:56;;;;;;;6.30;3.30;;;;;;;;;;5035961;28;20491;-75
2023/04/06 09:01:23;;;;;;;5.03;3.40;;;;;;;;;;5018483;28;20641;-75
2023/04/06 09:03:50;;;;;;;4.10;3.43;;;;;;;;;;5036286;28;20478;-77
2023/04/06 09:06:16;;;;;;;7.40;3.23;;;;;;;;;;5036217;28;20431;-77
2023/04/06 09:08:42;;;;;;;3.50;2.77;;;;;;;;;;5035813;28;20778;-77
2023/04/06 09:11:09;;;;;;;5.63;2.90;;;;;;;;;;5036178;28;20411;-77
2023/04/06 09:13:45;;;;;;;3.17;2.53;;;;;;;;;;5036000;28;20419;-77
2023/04/06 09:16:11;;;;;;;6.50;3.50;;;;;;;;;;5036029;28;20481;-77
2023/04/06 09:18:37;;;;;;;4.23;2.87;;;;;;;;;;5035928;28;20479;-76
2023/04/06 09:21:04;;;;;;;4.97;2.50;;;;;;;;;;5036001;28;20403;-77
2023/04/06 09:23:30;;;;;;;6.83;3.57;;;;;;;;;;5017821;28;20880;-75
2023/04/06 09:26:12;;;;;;;3.20;2.30;;;;;;;;;;5035889;28;20511;-75
2023/04/06 09:28:48;;;;;;;3.20;2.63;;;;;;;;;;5035832;28;20413;-74
2023/04/06 09:31:15;;;;;;;3.80;2.70;;;;;;;;;;5035768;28;20463;-75
2023/04/06 09:33:42;;;;;;;5.50;2.87;;;;;;;;;;5035627;28;20415;-75
2023/04/06 09:36:11;;;;;;;3.90;2.20;;;;;;;;;;5035604;28;20835;-77
2023/04/06 09:38:51;;;;;;;3.93;2.00;;;;;;;;;;5035195;28;20462;-77
2023/04/06 09:41:25;;;;;;;3.80;2.67;;;;;;;;;;5035634;28;20515;-76
2023/04/06 09:43:52;;;;;;;3.20;1.60;;;;;;;;;;5035477;28;20408;-75
2023/04/06 09:46:20;;;;;;;3.47;2.40;;;;;;;;;;5035396;28;20523;-76
2023/04/06 09:48:46;;;;;;;3.93;1.60;;;;;;;;;;5034062;28;20408;-74
2023/04/06 09:51:13;;;;;;;2.50;1.67;;;;;;;;;;5035357;28;20420;-74
2023/04/06 09:53:39;;;;;;;4.77;1.93;;;;;;;;;;5034855;28;20415;-74
2023/04/06 09:56:07;;;;;;;2.80;1.50;;;;;;;;;;5035289;28;20436;-77
2023/04/06 09:58:34;;;;;;;3.40;1.97;;;;;;;;;;5034895;28;20482;-75
2023/04/06 10:01:05;;;;;;;3.40;1.40;;;;;;;;;;5034071;28;20417;-75
2023/04/06 10:03:50;;;;;;;2.43;1.63;;;;;;;;;;5035141;28;20415;-77
2023/04/06 10:06:17;;;;;;;4.80;2.17;;;;;;;;;;5035001;28;20408;-76
2023/04/06 10:08:43;;;;;;;2.80;1.83;;;;;;;;;;5034705;28;20425;-77
2023/04/06 10:11:12;;;;;;;3.70;2.13;;;;;;;;;;5035037;28;20405;-77
2023/04/06 10:13:38;;;;;;;2.97;2.20;;;;;;;;;;5034911;28;20456;-77
2023/04/06 10:16:04;;;;;;;2.87;2.23;;;;;;;;;;5034881;28;20521;-77
2023/04/06 10:18:30;;;;;;;7.13;2.60;;;;;;;;;;5034724;28;20862;-76
2023/04/06 10:21:11;;;;;;;2.97;1.73;;;;;;;;;;5034789;28;20420;-77
2023/04/06 10:23:42;;;;;;;3.40;2.10;;;;;;;;;;5034342;28;20417;-76
2023/04/06 10:26:13;;;;;;;3.63;2.67;;;;;;;;;;5034806;28;20893;-76
2023/04/06 10:28:41;;;;;;;4.00;2.60;;;;;;;;;;5034664;28;20442;-77
2023/04/06 10:31:07;;;;;;;3.70;2.60;;;;;;;;;;5016881;28;20453;-76
2023/04/06 10:33:34;;;;;;;3.00;2.80;;;;;;;;;;5034434;28;20513;-76
2023/04/06 10:36:12;;;;;;;3.57;2.80;;;;;;;;;;5034531;28;20421;-77
2023/04/06 10:38:39;;;;;;;4.53;3.07;;;;;;;;;;5034014;28;20821;-77
2023/04/06 10:41:06;;;;;;;4.27;3.87;;;;;;;;;;5034357;28;20525;-76
2023/04/06 10:43:36;;;;;;;4.80;3.50;;;;;;;;;;5034343;28;20411;-76
2023/04/06 10:46:02;;;;;;;4.83;3.60;;;;;;;;;;5034283;28;20425;-77
2023/04/06 10:48:41;;;;;;;7.00;3.73;;;;;;;;;;5034376;28;20816;-76
2023/04/06 10:51:13;;;;;;;4.27;2.90;;;;;;;;;;5034204;28;20479;-74
2023/04/06 10:53:42;;;;;;;7.47;4.47;;;;;;;;;;5033895;28;20767;-74
2023/04/06 10:56:12;;;;;;;3.70;3.00;;;;;;;;;;5033996;28;20961;-76
2023/04/06 10:58:38;;;;;;;5.30;3.20;;;;;;;;;;5033785;28;20919;-74
2023/04/06 11:01:04;;;;;;;5.30;4.00;;;;;;;;;;5033519;28;20448;-74
2023/04/06 11:03:32;;;;;;;5.57;3.67;;;;;;;;;;5033934;28;20273;-74
2023/04/06 11:05:58;;;;;;;6.10;4.53;;;;;;;;;;5033963;28;20758;-74
2023/04/06 11:08:32;;;;;;;4.90;3.97;;;22.10;1.00;;;;;;5033540;28;20456;-76
2023/04/06 11:11:09;;;;;;;5.30;4.20;;;21.00;1.00;;;;;;5032854;28;20432;-76
2023/04/06 11:13:41;;;;;;;6.47;4.67;;;20.70;1.00;;;;;;5030970;28;20408;-76
2023/04/06 11:16:19;;;;;;;4.10;3.47;;;20.80;1.00;;;;;;5033447;28;20737;-76
2023/04/06 11:18:56;;;;;;;4.70;4.20;;;20.70;1.00;;;;;;5033602;28;21013;-77
2023/04/06 11:21:33;;;;;;;7.20;4.23;;;;;;;;;;5033658;28;20459;-76
2023/04/06 11:24:06;;;;;;;4.43;3.70;;;;;;;;;;5015497;28;20425;-74
2023/04/06 11:26:35;;;;;;;4.70;3.93;;;;;;;;;;5033585;28;20416;-74
2023/04/06 11:29:01;;;;;;;5.93;3.70;;;;;;;;;;5033451;28;20412;-76
2023/04/06 11:31:27;;;;;;;4.00;3.60;;;;;;;;;;5033153;28;20452;-76
2023/04/06 11:33:59;;;;;;;5.50;3.80;;;;;;;;;;5014370;28;20196;-78
2023/04/06 11:36:28;;;;;;;7.57;4.00;;;;;;;;;;5033400;28;20174;-77
2023/04/06 11:38:55;;;;;;;4.83;4.33;;;21.60;1.00;;;;;;5032968;28;20472;-76
2023/04/06 11:41:25;;;;;;;4.57;4.17;;;21.80;1.00;;;;;;5032798;28;20455;-77
2023/04/06 11:43:50;;;;;;;5.87;4.50;;;21.60;1.00;;;;;;5032723;28;20499;-76
2023/04/06 11:46:20;;;;;;;6.87;4.13;;;21.70;1.00;;;;;;5023173;28;20515;-77
2023/04/06 11:48:49;;;;;;;7.70;4.43;;;21.10;1.00;;;;;;5032750;28;20647;-76
2023/04/06 11:51:23;;;;;;;5.57;4.60;;;21.00;99.90;;;;;;5015450;28;20435;-77
2023/04/06 11:53:51;;;;;;;6.50;4.83;;;21.20;1.00;;;;;;5032850;28;20416;-77
2023/04/06 11:56:32;;;;;;;4.90;4.07;;;21.50;99.90;;;;;;5033073;28;20770;-77
2023/04/06 11:58:59;;;;;;;5.97;4.43;;;21.70;99.90;;;;;;5015088;28;20492;-77
2023/04/06 12:01:26;;;;;;;7.13;4.53;;;21.40;99.90;;;;;;5032976;28;20408;-77
2023/04/06 12:03:52;;;;;;;6.03;4.53;;;21.80;99.90;;;;;;5031674;28;20926;-77
2023/04/06 12:06:18;;;;;;;4.40;3.17;;;22.00;99.90;;;;;;5032548;28;20405;-76
2023/04/06 12:08:46;;;;;;;4.90;3.60;;;21.60;99.90;;;;;;5014354;28;20933;-76
2023/04/06 12:11:12;;;;;;;5.53;3.90;;;21.40;99.90;;;;;;5014659;28;20650;-76
2023/04/06 12:13:38;;;;;;;8.60;5.10;;;21.30;99.90;;;;;;5029158;28;20421;-77
2023/04/06 12:16:04;;;;;;;6.57;4.77;;;21.60;99.90;;;;;;5058212;22;20242;-75
2023/04/06 12:18:30;;;;;;;6.87;5.60;;;21.80;99.90;;;;;;5012396;28;20210;-76
2023/04/06 12:20:56;;;;;;;5.53;4.97;;;;;;;;;;5026976;28;20662;-76
2023/04/06 12:23:22;;;;;;;8.17;4.97;;;;;;;;;;5032167;28;20409;-75
2023/04/06 12:25:48;;;;;;;4.77;3.93;;;;;;;;;;5014418;28;20182;-76
2023/04/06 12:28:14;;;;;;;5.53;4.80;;;;;;;;;;5020880;28;20464;-76
2023/04/06 12:30:41;;;;;;;4.50;4.10;;;;;;;;;;5022932;28;20209;-76
2023/04/06 12:33:07;;;;;;;4.77;4.20;;;;;;;;;;5029240;28;20527;-76
2023/04/06 12:35:37;;;;;;;4.50;3.97;;;;;;;;;;5031945;28;20447;-76
2023/04/06 12:38:03;;;;;;;5.90;4.63;;;;;;;;;;5031404;28;20461;-75
2023/04/06 12:40:29;;;;;;;6.33;5.00;;;;;;;;;;5031991;28;20475;-75
2023/04/06 12:42:55;;;;;;;5.43;4.93;;;;;;;;;;5030502;28;20839;-75
2023/04/06 12:45:21;;;;;;;5.00;4.50;;;;;;;;;;5031759;28;20417;-75
2023/04/06 12:47:51;;;;;;;4.93;3.77;;;;;;;;;;5029205;28;20170;-76
2023/04/06 12:50:17;;;;;;;5.43;4.37;;;;;;;;;;5031853;28;20174;-76
2023/04/06 12:52:42;;;;;;;4.77;4.37;;;;;;;;;;5031498;28;20430;-76
2023/04/06 12:55:08;;;;;;;5.47;4.47;;;;;;;;;;5028993;28;20645;-76
2023/04/06 12:57:35;;;;;;;4.77;4.30;;;;;;;;;;5014206;28;20532;-76
2023/04/06 13:00:01;;;;;;;5.10;4.50;;;;;;;;;;5021029;28;20479;-76
2023/04/06 13:02:27;;;;;;;5.73;5.23;;;;;;;;;;5031885;28;20971;-75
2023/04/06 13:04:53;;;;;;;6.40;4.97;;;;;;;;;;5031824;28;20452;-76
2023/04/06 13:07:19;;;;;;;6.57;5.77;;;;;;;;;;5031575;28;20185;-76
2023/04/06 13:09:47;;;;;;;5.90;4.23;;;;;;;;;;5011487;28;20416;-75
2023/04/06 13:12:13;;;;;;;5.07;4.07;;;;;;;;;;5022014;28;20419;-75
2023/04/06 13:14:41;;;;;;;5.40;4.90;;;;;;;;;;5022081;28;20452;-75
2023/04/06 13:17:07;;;;;;;4.83;4.40;;;;;;;;;;5031478;28;20429;-76
2023/04/06 13:19:33;;;;;;;5.60;4.83;;;;;;;;;;5031389;28;20472;-76
2023/04/06 13:21:59;;;;;;;5.20;4.17;;;;;;;;;;5013634;28;20423;-75
2023/04/06 13:24:25;;;;;;;5.63;4.33;;;;;;;;;;5034420;28;20412;-75
2023/04/06 13:26:51;;;;;;;5.63;5.00;;;;;;;;;;5022963;28;21294;-74
2023/04/06 13:29:20;;;;;;;6.80;4.77;;;;;;;;;;5033939;28;20203;-75
2023/04/06 13:31:46;;;;;;;6.60;4.80;;;;;;;;;;5035306;28;20193;-75
2023/04/06 13:34:12;;;;;;;6.20;5.13;;;;;;;;;;5034175;28;20433;-76
2023/04/06 13:36:41;;;;;;;7.30;6.10;;;;;;;;;;5018842;28;20189;-76
2023/04/06 13:39:07;;;;;;;6.93;5.30;;;;;;;;;;5084747;22;20955;-76
2023/04/06 13:41:33;;;;;;;5.93;4.37;;;;;;;;;;5035411;28;20424;-75
2023/04/06 13:43:59;;;;;;;8.00;4.60;;;;;;;;;;5035384;28;20432;-75
2023/04/06 13:46:25;;;;;;;6.13;5.30;;;;;;;;;;5017512;28;20453;-75
2023/04/06 13:48:51;;;;;;;5.40;4.90;;;;;;;;;;5035106;28;20454;-75
2023/04/06 13:51:17;;;;;;;7.10;6.20;;;;;;;;;;5017075;28;20204;-78
2023/04/06 13:53:42;;;;;;;8.00;5.77;;;;;;;;;;5034964;28;20469;-75
2023/04/06 13:56:08;;;;;;;7.13;4.70;;;;;;;;;;5034947;28;20422;-75
2023/04/06 13:58:35;;;;;;;5.03;4.27;;;;;;;;;;5034862;28;20926;-75
2023/04/06 14:01:06;;;;;;;5.80;4.33;;;;;;;;;;5034966;28;20411;-76
2023/04/06 14:03:32;;;;;;;4.90;3.87;;;;;;;;;;5034920;28;20515;-75
2023/04/06 14:05:58;;;;;;;7.17;5.60;;;;;;;;;;5034897;28;20466;-75
2023/04/06 14:08:24;;;;;;;5.20;4.70;;;;;;;;;;5033813;28;20415;-92
2023/04/06 14:10:50;;;;;;;6.00;4.60;;;;;;;;;;5016318;28;20474;-91
2023/04/06 14:13:22;;;;;;;8.07;5.03;;;;;;;;;;5015027;28;20203;-86
2023/04/06 14:15:57;;;;;;;9.40;5.03;;;;;;;;;;5014702;28;20482;-86
2023/04/06 14:18:23;;;;;;;8.00;5.17;;;;;;;;;;5014451;28;20451;-82
2023/04/06 14:20:56;;;;;;;8.43;4.50;;;;;;;;;;5014031;28;20432;-82
2023/04/06 14:23:22;;;;;;;5.73;4.47;;;;;;;;;;5014858;28;20412;-90
2023/04/06 14:25:48;;;;;;;5.20;4.47;;;;;;;;;;4997195;28;20428;-87
2023/04/06 14:28:22;;;;;;;5.43;4.90;;;;;;;;;;5013882;28;20438;-86
2023/04/06 14:30:48;;;;;;;5.97;4.80;;;;;;;;;;4996779;28;20426;-82
2023/04/06 14:33:13;;;;;;;7.10;4.90;;;;;;;;;;5028167;28;21159;-91